sensor_id;sensor_type;location;lat;lon;timestamp;temperature;humidity
19435;DHT22;9853;50.848;4.108;2023-07-30T00:01:34;17.00;99.90
19435;DHT22;9853;50.848;4.108;2023-07-30T00:03:34;17.10;99.90
19435;DHT22;9853;50.848;4.108;2023-07-30T00:05:38;17.20;99.90
19435;DHT22;9853;50.848;4.108;2023-07-30T00:07:39;17.10;99.90
19435;DHT22;9853;50.848;4.108;2023-07-30T00:09:48;17.10;99.90
19435;DHT22;9853;50.848;4.108;2023-07-30T00:11:49;17.00;99.90
19435;DHT22;9853;50.848;4.108;2023-07-30T00:13:50;17.10;99.90
19435;DHT22;9853;50.848;4.108;2023-07-30T00:15:51;17.10;99.90
19435;DHT22;9853;50.848;4.108;2023-07-30T00:17:58;17.20;99.90
19435;DHT22;9853;50.848;4.108;2023-07-30T00:19:58;17.20;99.90
19435;DHT22;9853;50.848;4.108;2023-07-30T00:21:59;17.20;99.90
19435;DHT22;9853;50.848;4.108;2023-07-30T00:24:00;17.50;99.90
19435;DHT22;9853;50.848;4.108;2023-07-30T00:26:01;17.20;99.90
19435;DHT22;9853;50.848;4.108;2023-07-30T00:28:01;17.00;99.90
19435;DHT22;9853;50.848;4.108;2023-07-30T00:30:08;16.90;99.90
19435;DHT22;9853;50.848;4.108;2023-07-30T00:32:09;16.80;99.90
19435;DHT22;9853;50.848;4.108;2023-07-30T00:34:11;16.70;99.90
19435;DHT22;9853;50.848;4.108;2023-07-30T00:36:20;16.90;99.90
19435;DHT22;9853;50.848;4.108;2023-07-30T00:38:21;16.80;99.90
19435;DHT22;9853;50.848;4.108;2023-07-30T00:40:24;16.70;99.90
19435;DHT22;9853;50.848;4.108;2023-07-30T00:42:25;16.70;99.90
19435;DHT22;9853;50.848;4.108;2023-07-30T00:44:26;16.60;99.90
19435;DHT22;9853;50.848;4.108;2023-07-30T00:46:29;16.60;99.90
19435;DHT22;9853;50.848;4.108;2023-07-30T00:48:32;16.70;99.90
19435;DHT22;9853;50.848;4.108;2023-07-30T00:50:33;16.80;99.90
19435;DHT22;9853;50.848;4.108;2023-07-30T00:52:35;16.80;99.90
19435;DHT22;9853;50.848;4.108;2023-07-30T00:54:39;17.10;99.90
19435;DHT22;9853;50.848;4.108;2023-07-30T00:56:53;17.20;99.90
19435;DHT22;9853;50.848;4.108;2023-07-30T00:58:55;17.20;99.90
19435;DHT22;9853;50.848;4.108;2023-07-30T01:00:56;17.30;99.90
19435;DHT22;9853;50.848;4.108;2023-07-30T01:02:57;17.40;99.90
19435;DHT22;9853;50.848;4.108;2023-07-30T01:04:58;17.20;99.90
19435;DHT22;9853;50.848;4.108;2023-07-30T01:07:01;17.20;99.90
19435;DHT22;9853;50.848;4.108;2023-07-30T01:09:03;17.20;99.90
19435;DHT22;9853;50.848;4.108;2023-07-30T01:11:05;17.30;99.90
19435;DHT22;9853;50.848;4.108;2023-07-30T01:13:09;17.30;99.90
19435;DHT22;9853;50.848;4.108;2023-07-30T01:15:10;17.40;99.90
19435;DHT22;9853;50.848;4.108;2023-07-30T01:17:12;17.40;99.90
19435;DHT22;9853;50.848;4.108;2023-07-30T01:19:13;17.50;99.90
19435;DHT22;9853;50.848;4.108;2023-07-30T01:21:13;17.40;99.90
19435;DHT22;9853;50.848;4.108;2023-07-30T01:23:14;17.50;99.90
19435;DHT22;9853;50.848;4.108;2023-07-30T01:25:16;17.40;99.90
19435;DHT22;9853;50.848;4.108;2023-07-30T01:27:26;17.30;99.90
19435;DHT22;9853;50.848;4.108;2023-07-30T01:29:38;17.50;99.90
19435;DHT22;9853;50.848;4.108;2023-07-30T01:31:41;17.40;99.90
19435;DHT22;9853;50.848;4.108;2023-07-30T01:33:48;17.60;99.90
19435;DHT22;9853;50.848;4.108;2023-07-30T01:35:51;17.80;99.90
19435;DHT22;9853;50.848;4.108;2023-07-30T01:37:52;17.50;99.90
19435;DHT22;9853;50.848;4.108;2023-07-30T01:39:54;17.30;99.90
19435;DHT22;9853;50.848;4.108;2023-07-30T01:41:57;17.20;99.90
19435;DHT22;9853;50.848;4.108;2023-07-30T01:43:59;17.40;99.90
19435;DHT22;9853;50.848;4.108;2023-07-30T01:46:00;17.40;99.90
19435;DHT22;9853;50.848;4.108;2023-07-30T01:48:01;17.20;99.90
19435;DHT22;9853;50.848;4.108;2023-07-30T01:50:02;17.20;99.90
19435;DHT22;9853;50.848;4.108;2023-07-30T01:52:03;17.20;99.90
19435;DHT22;9853;50.848;4.108;2023-07-30T01:54:05;17.30;99.90
19435;DHT22;9853;50.848;4.108;2023-07-30T01:56:05;17.40;99.90
19435;DHT22;9853;50.848;4.108;2023-07-30T01:58:06;17.50;99.90
19435;DHT22;9853;50.848;4.108;2023-07-30T02:00:07;17.40;99.90
19435;DHT22;9853;50.848;4.108;2023-07-30T02:02:12;17.50;99.90
19435;DHT22;9853;50.848;4.108;2023-07-30T02:04:22;17.40;99.90
19435;DHT22;9853;50.848;4.108;2023-07-30T02:06:23;17.40;99.90
19435;DHT22;9853;50.848;4.108;2023-07-30T02:08:27;17.10;99.90
19435;DHT22;9853;50.848;4.108;2023-07-30T02:10:28;17.20;99.90
19435;DHT22;9853;50.848;4.108;2023-07-30T02:12:29;17.20;99.90
19435;DHT22;9853;50.848;4.108;2023-07-30T02:14:30;17.20;99.90
19435;DHT22;9853;50.848;4.108;2023-07-30T02:16:35;17.30;99.90
19435;DHT22;9853;50.848;4.108;2023-07-30T02:18:36;17.50;99.90
19435;DHT22;9853;50.848;4.108;2023-07-30T02:20:40;17.40;99.90
19435;DHT22;9853;50.848;4.108;2023-07-30T02:22:41;17.30;99.90
19435;DHT22;9853;50.848;4.108;2023-07-30T02:24:44;17.20;99.90
19435;DHT22;9853;50.848;4.108;2023-07-30T02:26:45;17.20;99.90
19435;DHT22;9853;50.848;4.108;2023-07-30T02:28:46;17.30;99.90
19435;DHT22;9853;50.848;4.108;2023-07-30T02:30:47;17.30;99.90
19435;DHT22;9853;50.848;4.108;2023-07-30T02:32:47;17.30;99.90
19435;DHT22;9853;50.848;4.108;2023-07-30T02:34:49;17.10;99.90
19435;DHT22;9853;50.848;4.108;2023-07-30T02:36:52;17.20;99.90
19435;DHT22;9853;50.848;4.108;2023-07-30T02:38:53;17.10;99.90
19435;DHT22;9853;50.848;4.108;2023-07-30T02:40:54;17.10;99.90
19435;DHT22;9853;50.848;4.108;2023-07-30T02:42:54;17.10;99.90
19435;DHT22;9853;50.848;4.108;2023-07-30T02:44:55;17.00;99.90
19435;DHT22;9853;50.848;4.108;2023-07-30T02:46:59;16.90;99.90
19435;DHT22;9853;50.848;4.108;2023-07-30T02:49:02;16.90;99.90
19435;DHT22;9853;50.848;4.108;2023-07-30T02:51:05;16.80;99.90
19435;DHT22;9853;50.848;4.108;2023-07-30T02:53:06;16.90;99.90
19435;DHT22;9853;50.848;4.108;2023-07-30T02:55:07;17.10;99.90
19435;DHT22;9853;50.848;4.108;2023-07-30T02:57:08;17.10;99.90
19435;DHT22;9853;50.848;4.108;2023-07-30T02:59:10;17.20;99.90
19435;DHT22;9853;50.848;4.108;2023-07-30T03:01:11;17.10;99.90
19435;DHT22;9853;50.848;4.108;2023-07-30T03:03:16;17.20;99.90
19435;DHT22;9853;50.848;4.108;2023-07-30T03:05:16;17.20;99.90
19435;DHT22;9853;50.848;4.108;2023-07-30T03:07:18;17.10;99.90
19435;DHT22;9853;50.848;4.108;2023-07-30T03:09:20;17.00;99.90
19435;DHT22;9853;50.848;4.108;2023-07-30T03:11:22;17.00;99.90
19435;DHT22;9853;50.848;4.108;2023-07-30T03:13:23;16.90;99.90
19435;DHT22;9853;50.848;4.108;2023-07-30T03:15:23;16.90;99.90
19435;DHT22;9853;50.848;4.108;2023-07-30T03:17:25;16.90;99.90
19435;DHT22;9853;50.848;4.108;2023-07-30T03:19:26;17.00;99.90
19435;DHT22;9853;50.848;4.108;2023-07-30T03:21:26;16.90;99.90
19435;DHT22;9853;50.848;4.108;2023-07-30T03:23:27;16.90;99.90
19435;DHT22;9853;50.848;4.108;2023-07-30T03:25:30;16.90;99.90
19435;DHT22;9853;50.848;4.108;2023-07-30T03:27:31;16.90;99.90
19435;DHT22;9853;50.848;4.108;2023-07-30T03:29:32;16.80;99.90
19435;DHT22;9853;50.848;4.108;2023-07-30T03:31:33;16.80;99.90
19435;DHT22;9853;50.848;4.108;2023-07-30T03:33:33;16.80;99.90
19435;DHT22;9853;50.848;4.108;2023-07-30T03:35:35;16.90;99.90
19435;DHT22;9853;50.848;4.108;2023-07-30T03:37:36;17.10;99.90
19435;DHT22;9853;50.848;4.108;2023-07-30T03:39:39;17.00;99.90
19435;DHT22;9853;50.848;4.108;2023-07-30T03:41:40;17.00;99.90
19435;DHT22;9853;50.848;4.108;2023-07-30T03:43:50;16.90;99.90
19435;DHT22;9853;50.848;4.108;2023-07-30T03:45:53;16.90;99.90
19435;DHT22;9853;50.848;4.108;2023-07-30T03:47:54;16.80;99.90
19435;DHT22;9853;50.848;4.108;2023-07-30T03:49:55;16.80;99.90
19435;DHT22;9853;50.848;4.108;2023-07-30T03:51:55;16.70;99.90
19435;DHT22;9853;50.848;4.108;2023-07-30T03:53:58;16.70;99.90
19435;DHT22;9853;50.848;4.108;2023-07-30T03:55:59;16.60;99.90
19435;DHT22;9853;50.848;4.108;2023-07-30T03:58:00;16.80;99.90
19435;DHT22;9853;50.848;4.108;2023-07-30T04:00:02;16.70;99.90
19435;DHT22;9853;50.848;4.108;2023-07-30T04:02:07;16.70;99.90
19435;DHT22;9853;50.848;4.108;2023-07-30T04:04:08;16.70;99.90
19435;DHT22;9853;50.848;4.108;2023-07-30T04:06:09;16.70;99.90
19435;DHT22;9853;50.848;4.108;2023-07-30T04:08:10;16.70;99.90
19435;DHT22;9853;50.848;4.108;2023-07-30T04:10:10;17.00;99.90
19435;DHT22;9853;50.848;4.108;2023-07-30T04:12:11;17.10;99.90
19435;DHT22;9853;50.848;4.108;2023-07-30T04:14:12;17.10;99.90
19435;DHT22;9853;50.848;4.108;2023-07-30T04:16:13;17.00;99.90
19435;DHT22;9853;50.848;4.108;2023-07-30T04:18:18;17.00;99.90
19435;DHT22;9853;50.848;4.108;2023-07-30T04:20:24;17.00;99.90
19435;DHT22;9853;50.848;4.108;2023-07-30T04:22:25;16.90;99.90
19435;DHT22;9853;50.848;4.108;2023-07-30T04:24:26;16.90;99.90
19435;DHT22;9853;50.848;4.108;2023-07-30T04:26:31;17.10;99.90
19435;DHT22;9853;50.848;4.108;2023-07-30T04:28:32;17.10;99.90
19435;DHT22;9853;50.848;4.108;2023-07-30T04:30:33;16.80;99.90
19435;DHT22;9853;50.848;4.108;2023-07-30T04:32:36;16.70;99.90
19435;DHT22;9853;50.848;4.108;2023-07-30T04:34:37;16.60;99.90
19435;DHT22;9853;50.848;4.108;2023-07-30T04:36:38;16.70;99.90
19435;DHT22;9853;50.848;4.108;2023-07-30T04:38:42;16.60;99.90
19435;DHT22;9853;50.848;4.108;2023-07-30T04:40:45;16.70;99.90
19435;DHT22;9853;50.848;4.108;2023-07-30T04:42:50;16.70;99.90
19435;DHT22;9853;50.848;4.108;2023-07-30T04:44:51;16.70;99.90
19435;DHT22;9853;50.848;4.108;2023-07-30T04:46:52;16.70;99.90
19435;DHT22;9853;50.848;4.108;2023-07-30T04:48:55;16.80;99.90
19435;DHT22;9853;50.848;4.108;2023-07-30T04:50:56;16.80;99.90
19435;DHT22;9853;50.848;4.108;2023-07-30T04:52:56;16.80;99.90
19435;DHT22;9853;50.848;4.108;2023-07-30T04:54:57;16.90;99.90
19435;DHT22;9853;50.848;4.108;2023-07-30T04:57:14;17.00;99.90
19435;DHT22;9853;50.848;4.108;2023-07-30T04:59:15;16.90;99.90
19435;DHT22;9853;50.848;4.108;2023-07-30T05:01:18;16.70;99.90
19435;DHT22;9853;50.848;4.108;2023-07-30T05:03:19;16.70;99.90
19435;DHT22;9853;50.848;4.108;2023-07-30T05:05:20;16.80;99.90
19435;DHT22;9853;50.848;4.108;2023-07-30T05:07:20;16.80;99.90
19435;DHT22;9853;50.848;4.108;2023-07-30T05:09:21;16.80;99.90
19435;DHT22;9853;50.848;4.108;2023-07-30T05:11:22;16.60;99.90
19435;DHT22;9853;50.848;4.108;2023-07-30T05:13:23;16.60;99.90
19435;DHT22;9853;50.848;4.108;2023-07-30T05:15:24;16.70;99.90
19435;DHT22;9853;50.848;4.108;2023-07-30T05:17:25;16.70;99.90
19435;DHT22;9853;50.848;4.108;2023-07-30T05:19:26;16.80;99.90
19435;DHT22;9853;50.848;4.108;2023-07-30T05:21:27;17.00;99.90
19435;DHT22;9853;50.848;4.108;2023-07-30T05:23:28;16.90;99.90
19435;DHT22;9853;50.848;4.108;2023-07-30T05:25:28;16.80;99.90
19435;DHT22;9853;50.848;4.108;2023-07-30T05:27:30;16.80;99.90
19435;DHT22;9853;50.848;4.108;2023-07-30T05:29:32;16.70;99.90
19435;DHT22;9853;50.848;4.108;2023-07-30T05:31:33;16.80;99.90
19435;DHT22;9853;50.848;4.108;2023-07-30T05:33:33;16.90;99.90
19435;DHT22;9853;50.848;4.108;2023-07-30T05:35:34;17.00;99.90
19435;DHT22;9853;50.848;4.108;2023-07-30T05:37:35;17.00;99.90
19435;DHT22;9853;50.848;4.108;2023-07-30T05:39:36;17.00;99.90
19435;DHT22;9853;50.848;4.108;2023-07-30T05:41:36;17.10;99.90
19435;DHT22;9853;50.848;4.108;2023-07-30T05:43:37;17.10;99.90
19435;DHT22;9853;50.848;4.108;2023-07-30T05:45:38;17.20;99.90
19435;DHT22;9853;50.848;4.108;2023-07-30T05:47:39;17.10;99.90
19435;DHT22;9853;50.848;4.108;2023-07-30T05:49:40;17.00;99.90
19435;DHT22;9853;50.848;4.108;2023-07-30T05:51:41;17.00;99.90
19435;DHT22;9853;50.848;4.108;2023-07-30T05:53:42;17.10;99.90
19435;DHT22;9853;50.848;4.108;2023-07-30T05:55:43;17.20;99.90
19435;DHT22;9853;50.848;4.108;2023-07-30T05:57:43;17.20;99.90
19435;DHT22;9853;50.848;4.108;2023-07-30T05:59:44;17.30;99.90
19435;DHT22;9853;50.848;4.108;2023-07-30T06:01:45;17.50;99.90
19435;DHT22;9853;50.848;4.108;2023-07-30T06:03:46;17.50;99.90
19435;DHT22;9853;50.848;4.108;2023-07-30T06:05:46;17.40;99.90
19435;DHT22;9853;50.848;4.108;2023-07-30T06:07:47;17.50;99.90
19435;DHT22;9853;50.848;4.108;2023-07-30T06:09:48;17.60;99.90
19435;DHT22;9853;50.848;4.108;2023-07-30T06:11:49;17.60;99.90
19435;DHT22;9853;50.848;4.108;2023-07-30T06:13:49;17.70;99.90
19435;DHT22;9853;50.848;4.108;2023-07-30T06:15:50;17.60;99.90
19435;DHT22;9853;50.848;4.108;2023-07-30T06:17:51;17.60;99.90
19435;DHT22;9853;50.848;4.108;2023-07-30T06:19:52;17.40;99.90
19435;DHT22;9853;50.848;4.108;2023-07-30T06:21:52;17.40;99.90
19435;DHT22;9853;50.848;4.108;2023-07-30T06:23:53;17.60;99.90
19435;DHT22;9853;50.848;4.108;2023-07-30T06:25:54;17.60;99.90
19435;DHT22;9853;50.848;4.108;2023-07-30T06:27:55;17.60;99.90
19435;DHT22;9853;50.848;4.108;2023-07-30T06:29:58;17.40;99.90
19435;DHT22;9853;50.848;4.108;2023-07-30T06:31:59;17.50;99.90
19435;DHT22;9853;50.848;4.108;2023-07-30T06:33:59;17.60;99.90
19435;DHT22;9853;50.848;4.108;2023-07-30T06:36:00;17.50;99.90
19435;DHT22;9853;50.848;4.108;2023-07-30T06:38:01;17.60;99.90
19435;DHT22;9853;50.848;4.108;2023-07-30T06:40:01;17.70;99.90
19435;DHT22;9853;50.848;4.108;2023-07-30T06:42:06;17.90;99.90
19435;DHT22;9853;50.848;4.108;2023-07-30T06:44:08;17.60;99.90
19435;DHT22;9853;50.848;4.108;2023-07-30T06:46:09;17.80;99.90
19435;DHT22;9853;50.848;4.108;2023-07-30T06:48:10;17.70;99.90
19435;DHT22;9853;50.848;4.108;2023-07-30T06:50:11;17.90;99.90
19435;DHT22;9853;50.848;4.108;2023-07-30T06:52:12;18.10;99.90
19435;DHT22;9853;50.848;4.108;2023-07-30T06:54:13;18.20;99.90
19435;DHT22;9853;50.848;4.108;2023-07-30T06:56:13;18.40;99.90
19435;DHT22;9853;50.848;4.108;2023-07-30T06:58:14;18.30;99.90
19435;DHT22;9853;50.848;4.108;2023-07-30T07:00:15;18.50;99.90
19435;DHT22;9853;50.848;4.108;2023-07-30T07:02:21;18.70;99.90
19435;DHT22;9853;50.848;4.108;2023-07-30T07:04:22;18.80;99.90
19435;DHT22;9853;50.848;4.108;2023-07-30T07:06:23;18.90;99.90
19435;DHT22;9853;50.848;4.108;2023-07-30T07:08:24;19.10;99.90
19435;DHT22;9853;50.848;4.108;2023-07-30T07:10:25;19.50;99.90
19435;DHT22;9853;50.848;4.108;2023-07-30T07:12:25;19.70;99.90
19435;DHT22;9853;50.848;4.108;2023-07-30T07:14:26;19.80;99.90
19435;DHT22;9853;50.848;4.108;2023-07-30T07:16:27;19.80;99.90
19435;DHT22;9853;50.848;4.108;2023-07-30T07:18:28;20.20;99.90
19435;DHT22;9853;50.848;4.108;2023-07-30T07:20:28;20.20;99.90
19435;DHT22;9853;50.848;4.108;2023-07-30T07:22:29;20.30;99.90
19435;DHT22;9853;50.848;4.108;2023-07-30T07:24:30;20.20;99.90
19435;DHT22;9853;50.848;4.108;2023-07-30T07:26:31;20.30;99.90
19435;DHT22;9853;50.848;4.108;2023-07-30T07:28:32;20.10;99.90
19435;DHT22;9853;50.848;4.108;2023-07-30T07:30:35;20.10;99.90
19435;DHT22;9853;50.848;4.108;2023-07-30T07:32:37;20.00;99.90
19435;DHT22;9853;50.848;4.108;2023-07-30T07:34:38;20.10;99.90
19435;DHT22;9853;50.848;4.108;2023-07-30T07:36:39;20.00;99.90
19435;DHT22;9853;50.848;4.108;2023-07-30T07:38:40;19.90;99.90
19435;DHT22;9853;50.848;4.108;2023-07-30T07:40:53;20.20;99.90
19435;DHT22;9853;50.848;4.108;2023-07-30T07:42:55;20.30;99.90
19435;DHT22;9853;50.848;4.108;2023-07-30T07:44:56;20.30;99.90
19435;DHT22;9853;50.848;4.108;2023-07-30T07:46:56;20.50;99.90
19435;DHT22;9853;50.848;4.108;2023-07-30T07:48:57;20.40;99.90
19435;DHT22;9853;50.848;4.108;2023-07-30T07:50:58;19.90;99.90
19435;DHT22;9853;50.848;4.108;2023-07-30T07:52:59;20.00;99.90
19435;DHT22;9853;50.848;4.108;2023-07-30T07:55:00;20.10;99.90
19435;DHT22;9853;50.848;4.108;2023-07-30T07:57:01;20.40;99.90
19435;DHT22;9853;50.848;4.108;2023-07-30T07:59:01;20.60;99.90
19435;DHT22;9853;50.848;4.108;2023-07-30T08:01:03;20.20;99.90
19435;DHT22;9853;50.848;4.108;2023-07-30T08:03:03;20.30;99.90
19435;DHT22;9853;50.848;4.108;2023-07-30T08:05:04;20.50;99.90
19435;DHT22;9853;50.848;4.108;2023-07-30T08:07:05;20.70;99.90
19435;DHT22;9853;50.848;4.108;2023-07-30T08:09:06;20.90;99.90
19435;DHT22;9853;50.848;4.108;2023-07-30T08:11:07;20.70;99.90
19435;DHT22;9853;50.848;4.108;2023-07-30T08:13:10;20.50;99.90
19435;DHT22;9853;50.848;4.108;2023-07-30T08:15:10;20.80;99.90
19435;DHT22;9853;50.848;4.108;2023-07-30T08:17:11;21.10;99.90
19435;DHT22;9853;50.848;4.108;2023-07-30T08:19:12;21.60;99.90
19435;DHT22;9853;50.848;4.108;2023-07-30T08:21:13;21.70;99.90
19435;DHT22;9853;50.848;4.108;2023-07-30T08:23:14;21.50;99.90
19435;DHT22;9853;50.848;4.108;2023-07-30T08:25:14;21.60;99.90
19435;DHT22;9853;50.848;4.108;2023-07-30T08:27:15;21.50;99.90
19435;DHT22;9853;50.848;4.108;2023-07-30T08:29:16;21.40;99.90
19435;DHT22;9853;50.848;4.108;2023-07-30T08:31:17;21.10;99.90
19435;DHT22;9853;50.848;4.108;2023-07-30T08:33:18;20.90;99.90
19435;DHT22;9853;50.848;4.108;2023-07-30T08:35:18;20.80;99.90
19435;DHT22;9853;50.848;4.108;2023-07-30T08:37:19;20.60;99.90
19435;DHT22;9853;50.848;4.108;2023-07-30T08:39:20;20.40;99.90
19435;DHT22;9853;50.848;4.108;2023-07-30T08:41:20;20.20;99.90
19435;DHT22;9853;50.848;4.108;2023-07-30T08:43:21;20.40;99.90
19435;DHT22;9853;50.848;4.108;2023-07-30T08:45:22;20.70;99.90
19435;DHT22;9853;50.848;4.108;2023-07-30T08:47:23;20.80;99.90
19435;DHT22;9853;50.848;4.108;2023-07-30T08:49:23;21.10;99.90
19435;DHT22;9853;50.848;4.108;2023-07-30T08:51:25;21.00;99.90
19435;DHT22;9853;50.848;4.108;2023-07-30T08:53:26;21.00;99.90
19435;DHT22;9853;50.848;4.108;2023-07-30T08:55:28;21.20;99.90
19435;DHT22;9853;50.848;4.108;2023-07-30T08:57:30;21.20;99.90
19435;DHT22;9853;50.848;4.108;2023-07-30T08:59:36;20.70;99.90
19435;DHT22;9853;50.848;4.108;2023-07-30T09:01:39;21.10;99.90
19435;DHT22;9853;50.848;4.108;2023-07-30T09:03:41;21.40;99.90
19435;DHT22;9853;50.848;4.108;2023-07-30T09:05:41;21.50;99.90
19435;DHT22;9853;50.848;4.108;2023-07-30T09:07:42;21.30;99.90
19435;DHT22;9853;50.848;4.108;2023-07-30T09:09:44;20.80;99.90
19435;DHT22;9853;50.848;4.108;2023-07-30T09:11:51;20.90;99.90
19435;DHT22;9853;50.848;4.108;2023-07-30T09:13:55;20.40;99.90
19435;DHT22;9853;50.848;4.108;2023-07-30T09:15:58;20.10;99.90
19435;DHT22;9853;50.848;4.108;2023-07-30T09:18:00;20.00;99.90
19435;DHT22;9853;50.848;4.108;2023-07-30T09:20:02;20.10;99.90
19435;DHT22;9853;50.848;4.108;2023-07-30T09:22:06;19.90;99.90
19435;DHT22;9853;50.848;4.108;2023-07-30T09:24:07;20.00;99.90
19435;DHT22;9853;50.848;4.108;2023-07-30T09:26:08;20.10;99.90
19435;DHT22;9853;50.848;4.108;2023-07-30T09:28:10;20.20;99.90
19435;DHT22;9853;50.848;4.108;2023-07-30T09:30:11;20.20;99.90
19435;DHT22;9853;50.848;4.108;2023-07-30T09:32:12;19.90;99.90
19435;DHT22;9853;50.848;4.108;2023-07-30T09:34:16;19.80;99.90
19435;DHT22;9853;50.848;4.108;2023-07-30T09:36:19;20.00;99.90
19435;DHT22;9853;50.848;4.108;2023-07-30T09:38:20;20.10;99.90
19435;DHT22;9853;50.848;4.108;2023-07-30T09:40:31;19.90;99.90
19435;DHT22;9853;50.848;4.108;2023-07-30T09:42:32;19.50;99.90
19435;DHT22;9853;50.848;4.108;2023-07-30T09:44:37;19.40;99.90
19435;DHT22;9853;50.848;4.108;2023-07-30T09:46:47;19.40;99.90
19435;DHT22;9853;50.848;4.108;2023-07-30T09:48:48;19.10;99.90
19435;DHT22;9853;50.848;4.108;2023-07-30T09:50:49;19.00;99.90
19435;DHT22;9853;50.848;4.108;2023-07-30T09:52:50;19.10;99.90
19435;DHT22;9853;50.848;4.108;2023-07-30T09:54:52;19.20;99.90
19435;DHT22;9853;50.848;4.108;2023-07-30T09:56:53;19.40;99.90
19435;DHT22;9853;50.848;4.108;2023-07-30T09:58:53;19.50;99.90
19435;DHT22;9853;50.848;4.108;2023-07-30T10:00:55;19.80;99.90
19435;DHT22;9853;50.848;4.108;2023-07-30T10:02:59;20.20;99.90
19435;DHT22;9853;50.848;4.108;2023-07-30T10:05:03;20.80;99.90
19435;DHT22;9853;50.848;4.108;2023-07-30T10:07:12;21.50;99.90
19435;DHT22;9853;50.848;4.108;2023-07-30T10:09:17;22.20;99.90
19435;DHT22;9853;50.848;4.108;2023-07-30T10:11:20;22.90;99.90
19435;DHT22;9853;50.848;4.108;2023-07-30T10:13:22;23.70;99.90
19435;DHT22;9853;50.848;4.108;2023-07-30T10:15:23;24.30;99.90
19435;DHT22;9853;50.848;4.108;2023-07-30T10:17:25;24.80;99.90
19435;DHT22;9853;50.848;4.108;2023-07-30T10:19:27;25.10;99.90
19435;DHT22;9853;50.848;4.108;2023-07-30T10:21:28;25.10;99.90
19435;DHT22;9853;50.848;4.108;2023-07-30T10:23:33;25.20;99.90
19435;DHT22;9853;50.848;4.108;2023-07-30T10:27:50;23.90;99.90
19435;DHT22;9853;50.848;4.108;2023-07-30T10:32:12;23.10;99.90
19435;DHT22;9853;50.848;4.108;2023-07-30T10:34:13;22.90;99.90
19435;DHT22;9853;50.848;4.108;2023-07-30T10:36:16;22.70;99.90
19435;DHT22;9853;50.848;4.108;2023-07-30T10:38:29;22.90;99.90
19435;DHT22;9853;50.848;4.108;2023-07-30T10:40:30;22.60;99.90
19435;DHT22;9853;50.848;4.108;2023-07-30T10:42:34;22.60;99.90
19435;DHT22;9853;50.848;4.108;2023-07-30T10:44:36;22.40;99.90
19435;DHT22;9853;50.848;4.108;2023-07-30T10:46:37;22.10;99.90
19435;DHT22;9853;50.848;4.108;2023-07-30T10:48:42;22.00;99.90
19435;DHT22;9853;50.848;4.108;2023-07-30T10:50:43;22.30;99.90
19435;DHT22;9853;50.848;4.108;2023-07-30T10:52:49;22.50;99.90
19435;DHT22;9853;50.848;4.108;2023-07-30T10:54:49;23.20;99.90
19435;DHT22;9853;50.848;4.108;2023-07-30T10:56:59;23.50;99.90
19435;DHT22;9853;50.848;4.108;2023-07-30T10:59:00;23.30;99.90
19435;DHT22;9853;50.848;4.108;2023-07-30T11:01:08;23.10;99.90
19435;DHT22;9853;50.848;4.108;2023-07-30T11:03:09;23.30;99.90
19435;DHT22;9853;50.848;4.108;2023-07-30T11:05:13;23.80;99.90
19435;DHT22;9853;50.848;4.108;2023-07-30T11:07:18;23.80;99.90
19435;DHT22;9853;50.848;4.108;2023-07-30T11:09:26;23.90;99.90
19435;DHT22;9853;50.848;4.108;2023-07-30T11:11:27;23.80;99.90
19435;DHT22;9853;50.848;4.108;2023-07-30T11:13:29;23.90;99.90
19435;DHT22;9853;50.848;4.108;2023-07-30T11:15:30;23.70;99.90
19435;DHT22;9853;50.848;4.108;2023-07-30T11:17:30;23.50;99.90
19435;DHT22;9853;50.848;4.108;2023-07-30T11:19:34;23.50;99.90
19435;DHT22;9853;50.848;4.108;2023-07-30T11:21:35;23.50;99.90
19435;DHT22;9853;50.848;4.108;2023-07-30T11:23:44;23.70;99.90
19435;DHT22;9853;50.848;4.108;2023-07-30T11:25:47;24.00;99.90
19435;DHT22;9853;50.848;4.108;2023-07-30T11:27:50;23.80;99.90
19435;DHT22;9853;50.848;4.108;2023-07-30T11:29:54;23.80;99.90
19435;DHT22;9853;50.848;4.108;2023-07-30T11:31:57;23.60;99.90
19435;DHT22;9853;50.848;4.108;2023-07-30T11:33:59;23.50;99.90
19435;DHT22;9853;50.848;4.108;2023-07-30T11:36:00;23.50;99.90
19435;DHT22;9853;50.848;4.108;2023-07-30T11:38:02;23.60;99.90
19435;DHT22;9853;50.848;4.108;2023-07-30T11:40:03;23.60;99.90
19435;DHT22;9853;50.848;4.108;2023-07-30T11:42:04;23.50;99.90
19435;DHT22;9853;50.848;4.108;2023-07-30T11:44:05;23.60;99.90
19435;DHT22;9853;50.848;4.108;2023-07-30T11:46:14;23.60;99.90
19435;DHT22;9853;50.848;4.108;2023-07-30T11:48:15;23.50;99.90
19435;DHT22;9853;50.848;4.108;2023-07-30T11:50:16;23.60;99.90
19435;DHT22;9853;50.848;4.108;2023-07-30T11:52:17;23.70;99.90
19435;DHT22;9853;50.848;4.108;2023-07-30T11:54:19;23.90;99.90
19435;DHT22;9853;50.848;4.108;2023-07-30T11:58:28;24.10;99.90
19435;DHT22;9853;50.848;4.108;2023-07-30T12:00:31;24.10;99.90
19435;DHT22;9853;50.848;4.108;2023-07-30T12:02:32;24.00;99.90
19435;DHT22;9853;50.848;4.108;2023-07-30T12:04:45;23.90;99.90
19435;DHT22;9853;50.848;4.108;2023-07-30T12:06:49;23.80;99.90
19435;DHT22;9853;50.848;4.108;2023-07-30T12:08:51;23.80;99.90
19435;DHT22;9853;50.848;4.108;2023-07-30T12:10:51;24.20;99.90
19435;DHT22;9853;50.848;4.108;2023-07-30T12:12:53;24.60;99.90
19435;DHT22;9853;50.848;4.108;2023-07-30T12:14:54;24.70;99.90
19435;DHT22;9853;50.848;4.108;2023-07-30T12:16:56;24.50;99.90
19435;DHT22;9853;50.848;4.108;2023-07-30T12:18:56;24.30;99.90
19435;DHT22;9853;50.848;4.108;2023-07-30T12:20:57;23.90;99.90
19435;DHT22;9853;50.848;4.108;2023-07-30T12:22:58;23.40;99.90
19435;DHT22;9853;50.848;4.108;2023-07-30T12:24:59;23.10;99.90
19435;DHT22;9853;50.848;4.108;2023-07-30T12:27:00;23.20;99.90
19435;DHT22;9853;50.848;4.108;2023-07-30T12:29:01;23.50;99.90
19435;DHT22;9853;50.848;4.108;2023-07-30T12:31:02;23.50;99.90
19435;DHT22;9853;50.848;4.108;2023-07-30T12:33:03;23.80;99.90
19435;DHT22;9853;50.848;4.108;2023-07-30T12:35:04;24.30;99.90
19435;DHT22;9853;50.848;4.108;2023-07-30T12:37:05;24.50;99.90
19435;DHT22;9853;50.848;4.108;2023-07-30T12:39:06;24.30;99.90
19435;DHT22;9853;50.848;4.108;2023-07-30T12:41:11;24.30;99.90
19435;DHT22;9853;50.848;4.108;2023-07-30T12:43:12;24.50;99.90
19435;DHT22;9853;50.848;4.108;2023-07-30T12:45:13;24.40;99.90
19435;DHT22;9853;50.848;4.108;2023-07-30T12:47:14;24.50;99.90
19435;DHT22;9853;50.848;4.108;2023-07-30T12:49:15;24.20;99.90
19435;DHT22;9853;50.848;4.108;2023-07-30T12:51:16;24.00;99.90
19435;DHT22;9853;50.848;4.108;2023-07-30T12:53:17;24.10;99.90
19435;DHT22;9853;50.848;4.108;2023-07-30T12:55:18;24.40;99.90
19435;DHT22;9853;50.848;4.108;2023-07-30T12:57:19;24.80;99.90
19435;DHT22;9853;50.848;4.108;2023-07-30T12:59:19;24.90;99.90
19435;DHT22;9853;50.848;4.108;2023-07-30T13:01:20;24.70;99.90
19435;DHT22;9853;50.848;4.108;2023-07-30T13:03:21;24.60;99.90
19435;DHT22;9853;50.848;4.108;2023-07-30T13:05:22;24.00;99.90
19435;DHT22;9853;50.848;4.108;2023-07-30T13:07:23;24.10;99.90
19435;DHT22;9853;50.848;4.108;2023-07-30T13:09:24;24.40;99.90